Terminal Aerodrome Forecast
Issued by NWS

Home | Current Version | Previous Version | Text Only | Print | Product List | Glossary On
Versions: 1 2 3 4 5 6 7 8 9 10 11 12 13 14 15 16 17 18 19 20 21 22 23 24 25 26 27 28 29
000
FTUS41 KBOX 280538
TAFACK
TAF
KACK 280538Z 2806/2906 22007KT P6SM FEW200
     FM281100 23011G22KT P6SM BKN100
     FM281700 27013G24KT P6SM OVC060
     FM282000 28010G22KT 5SM -SHRA OVC050
     FM282200 28009KT P6SM OVC050
     FM290300 32008KT P6SM BKN100=

USA.gov is the U.S. government's official web portal to all federal, state and local government web resources and services.